Time;durP1;ratioP1;P1;durP2;ratioP2;P2;SDS_P1;SDS_P2;PMS_P1;PMS_P2;Temp;Humidity;BMP_temperature;BMP_pressure;BME280_temperature;BME280_humidity;BME280_pressure;Samples;Min_cycle;Max_cycle;Signal;HPM_P1;HPM_P2
2022/12/21 05:17:15;;;;;;;;;;;;;;;;;;941702;31;20024;-75
2022/12/21 05:17:46;;;;;;;;;;;;;;;;;;944292;27;19908;-77
2022/12/21 05:18:16;;;;;;;;;;;;;;;;;;943960;27;19912;-76
2022/12/21 05:18:52;;;;;;;;;;;;;;;;;;943765;27;19916;-78
2022/12/21 05:19:23;;;;;;;;;;;;;;;;;;943751;27;19907;-76
2022/12/21 05:19:56;;;;;;;;;;;;;;;;;;943918;27;19907;-78
2022/12/21 05:20:27;;;;;;;;;;;;;;;;;;943777;27;20428;-77
2022/12/21 05:20:58;;;;;;;;;;;;;;;;;;945530;27;19949;-77
2022/12/21 05:21:31;;;;;;;;;;;;;;;;;;943687;27;19907;-78
2022/12/21 05:22:01;;;;;;;;;;;;;;;;;;943656;27;19911;-78
2022/12/21 05:22:32;;;;;;;;;;;;;;;;;;943643;27;19925;-78
2022/12/21 05:23:05;;;;;;;;;;;;;;;;;;943574;27;19943;-76
2022/12/21 05:23:37;;;;;;;;;;;;;;;;;;943627;27;19919;-77
2022/12/21 05:24:11;;;;;;;;;;;;;;;;;;943652;27;19911;-78
2022/12/21 05:24:41;;;;;;;;;;;;;;;;;;943618;27;20117;-77
2022/12/21 05:25:12;;;;;;;;;;;;;;;;;;943591;27;19959;-77
2022/12/21 05:25:45;;;;;;;;;;;;;;;;;;943533;27;19915;-77
2022/12/21 05:26:17;;;;;;;;;;;;;;;;;;943829;27;19911;-78
2022/12/21 05:26:47;;;;;;;;;;;;;;;;;;944970;27;19952;-78
2022/12/21 05:27:21;;;;;;;;;;;;;;;;;;947139;27;19916;-76
2022/12/21 05:27:51;;;;;;;;;;;;;;;;;;946953;27;19919;-76
2022/12/21 05:28:22;;;;;;;;;;;;;;;;;;947358;27;20181;-77
2022/12/21 05:28:55;;;;;;;;;;;;;;;;;;947357;27;19900;-76
2022/12/21 05:29:26;;;;;;;;;;;;;;;;;;947320;27;19900;-78
2022/12/21 05:29:56;;;;;;;;;;;;;;;;;;947370;27;19899;-77
2022/12/21 05:30:29;;;;;;;;;;;;;;;;;;947253;27;19915;-79
2022/12/21 05:31:02;;;;;;;;;;;;;;;;;;947432;27;20287;-77
2022/12/21 05:31:32;;;;;;;;;;;;;;;;;;947257;27;19907;-79
2022/12/21 05:32:06;;;;;;;;;;;;;;;;;;947429;27;19931;-78
2022/12/21 05:32:40;;;;;;;;;;;;;;;;;;946409;27;19906;-77
2022/12/21 05:33:10;;;;;;;;;;;;;;;;;;946075;27;19907;-79
2022/12/21 05:33:44;;;;;;;;;;;;;;;;;;946549;27;19907;-77
2022/12/21 05:34:14;;;;;;;;;;;;;;;;;;947414;27;19918;-75
2022/12/21 05:34:45;;;;;;;;;;;;;;;;;;947404;27;19907;-77
2022/12/21 05:35:18;;;;;;;;;;;;;;;;;;947263;27;19900;-79
2022/12/21 05:35:49;;;;;;;;;;;;;;;;;;947435;27;20252;-79
2022/12/21 05:36:19;;;;;;;;;;;;;;;;;;947440;27;19899;-78
2022/12/21 05:36:53;;;;;;;;;;;;;;;;;;947219;27;19936;-77
2022/12/21 05:37:23;;;;;;;;;;;;;;;;;;947360;27;19907;-78
2022/12/21 05:37:54;;;;;;;;;;;;;;;;;;947227;27;19914;-78
2022/12/21 05:38:24;;;;;;;;;;;;;;;;;;947385;27;19899;-78
2022/12/21 05:38:58;;;;;;;;;;;;;;;;;;947390;27;19899;-76
2022/12/21 05:39:29;;;;;;;;;;;;;;;;;;947417;27;19899;-77
2022/12/21 05:40:00;;;;;;;;;;;;;;;;;;947343;27;19896;-78
2022/12/21 05:40:33;;;;;;;;;;;;;;;;;;947410;27;20207;-78
2022/12/21 05:41:04;;;;;;;;;;;;;;;;;;947231;27;19902;-77
2022/12/21 05:41:37;;;;;;;;;;;;;;;;;;946142;27;20247;-76
2022/12/21 05:42:07;;;;;;;;;;;;;;;;;;943725;27;20240;-76
2022/12/21 05:42:38;;;;;;;;;;;;;;;;;;943606;27;19918;-77
2022/12/21 05:43:11;;;;;;;;;;;;;;;;;;943623;27;19998;-77
2022/12/21 05:43:42;;;;;;;;;;;;;;;;;;943495;27;19918;-76
2022/12/21 05:44:15;;;;;;;;;;;;;;;;;;943305;27;19918;-77
2022/12/21 05:44:46;;;;;;;;;;;;;;;;;;943332;27;19907;-76
2022/12/21 05:45:16;;;;;;;;;;;;;;;;;;943310;27;19912;-76
2022/12/21 05:45:50;;;;;;;;;;;;;;;;;;943487;27;19958;-76
2022/12/21 05:46:20;;;;;;;;;;;;;;;;;;943890;27;19911;-76
2022/12/21 05:46:53;;;;;;;;;;;;;;;;;;943444;27;19907;-76
2022/12/21 05:47:24;;;;;;;;;;;;;;;;;;943289;27;19911;-76
2022/12/21 05:47:57;;;;;;;;;;;;;;;;;;943505;27;19908;-77
2022/12/21 05:48:31;;;;;;;;;;;;;;;;;;946450;27;19907;-76
2022/12/21 05:49:01;;;;;;;;;;;;;;;;;;947241;27;19903;-77
2022/12/21 05:49:32;;;;;;;;;;;;;;;;;;946984;27;19914;-76
2022/12/21 05:50:05;;;;;;;;;;;;;;;;;;945443;27;19907;-76
2022/12/21 05:50:37;;;;;;;;;;;;;;;;;;943633;27;19919;-76
2022/12/21 05:51:08;;;;;;;;;;;;;;;;;;943589;27;19908;-76
2022/12/21 05:51:41;;;;;;;;;;;;;;;;;;943500;27;20161;-75
2022/12/21 05:52:12;;;;;;;;;;;;;;;;;;943522;27;19922;-77
2022/12/21 05:52:43;;;;;;;;;;;;;;;;;;943637;27;20180;-76
2022/12/21 05:53:16;;;;;;;;;;;;;;;;;;943608;27;19999;-77
2022/12/21 05:53:46;;;;;;;;;;;;;;;;;;943498;27;19907;-76
2022/12/21 05:54:17;;;;;;;;;;;;;;;;;;943536;27;19911;-77
2022/12/21 05:54:51;;;;;;;;;;;;;;;;;;943651;27;19982;-77
2022/12/21 05:55:21;;;;;;;;;;;;;;;;;;944362;27;19914;-78
2022/12/21 05:55:52;;;;;;;;;;;;;;;;;;943720;27;19922;-79
2022/12/21 05:56:25;;;;;;;;;;;;;;;;;;943694;27;20235;-77
2022/12/21 05:56:56;;;;;;;;;;;;;;;;;;943579;27;19907;-77
2022/12/21 05:57:26;;;;;;;;;;;;;;;;;;943749;27;19922;-76
2022/12/21 05:58:01;;;;;;;;;;;;;;;;;;943636;27;19918;-76
2022/12/21 05:58:31;;;;;;;;;;;;;;;;;;943480;27;19911;-75
2022/12/21 05:59:02;;;;;;;;;;;;;;;;;;943565;27;19908;-77
2022/12/21 05:59:35;;;;;;;;;;;;;;;;;;943446;27;19907;-76
2022/12/21 06:00:06;;;;;;;;;;;;;;;;;;944332;27;19907;-78
2022/12/21 06:00:37;;;;;;;;;;;;;;;;;;943560;27;20003;-75
2022/12/21 06:01:11;;;;;;;;;;;;;;;;;;943574;27;19985;-77
2022/12/21 06:01:42;;;;;;;;;;;;;;;;;;943469;27;19907;-78
2022/12/21 06:02:13;;;;;;;;;;;;;;;;;;944003;27;19918;-75
2022/12/21 06:02:46;;;;;;;;;;;;;;;;;;944028;27;19921;-77
2022/12/21 06:03:20;;;;;;;;;;;;;;;;;;944171;27;19908;-76
2022/12/21 06:03:54;;;;;;;;;;;;;;;;;;943534;27;20248;-76
2022/12/21 06:04:25;;;;;;;;;;;;;;;;;;943395;27;19926;-76
2022/12/21 06:04:55;;;;;;;;;;;;;;;;;;943590;27;19955;-78
2022/12/21 06:05:29;;;;;;;;;;;;;;;;;;943516;27;19967;-78
2022/12/21 06:06:03;;;;;;;;;;;;;;;;;;943942;27;19943;-78
2022/12/21 06:06:36;;;;;;;;;;;;;;;;;;943490;27;20161;-78
2022/12/21 06:07:09;;;;;;;;;;;;;;;;;;943668;27;19922;-78
2022/12/21 06:07:39;;;;;;;;;;;;;;;;;;943681;27;19911;-78
2022/12/21 06:08:10;;;;;;;;;;;;;;;;;;943563;27;19917;-78
2022/12/21 06:08:43;;;;;;;;;;;;;;;;;;943706;27;19920;-78
2022/12/21 06:09:14;;;;;;;;;;;;;;;;;;943718;27;19907;-77
2022/12/21 06:09:45;;;;;;;;;;;;;;;;;;943755;27;19907;-78
2022/12/21 06:10:18;;;;;;;;;;;;;;;;;;943674;27;20276;-78
2022/12/21 06:10:48;;;;;;;;;;;;;;;;;;943595;27;19908;-78
2022/12/21 06:11:23;;;;;;;;;;;;;;;;;;943468;27;20225;-78
2022/12/21 06:11:54;;;;;;;;;;;;;;;;;;943625;27;19907;-78
2022/12/21 06:12:24;;;;;;;;;;;;;;;;;;943731;27;19907;-78
2022/12/21 06:12:55;;;;;;;;;;;;;;;;;;943633;27;20018;-77
2022/12/21 06:13:28;;;;;;;;;;;;;;;;;;943586;27;19923;-78
2022/12/21 06:13:59;;;;;;;;;;;;;;;;;;943627;27;20248;-79
2022/12/21 06:14:32;;;;;;;;;;;;;;;;;;943718;27;19934;-77
2022/12/21 06:15:03;;;;;;;;;;;;;;;;;;943545;27;19911;-77
2022/12/21 06:15:34;;;;;;;;;;;;;;;;;;943571;27;20244;-79
2022/12/21 06:16:09;;;;;;;;;;;;;;;;;;943630;27;19918;-78
2022/12/21 06:16:39;;;;;;;;;;;;;;;;;;943650;27;20282;-78
2022/12/21 06:17:10;;;;;;;;;;;;;;;;;;943491;27;19919;-78
2022/12/21 06:17:44;;;;;;;;;;;;;;;;;;943576;27;19907;-76
2022/12/21 06:18:15;;;;;;;;;;;;;;;;;;943569;27;19918;-77
2022/12/21 06:18:51;;;;;;;;;;;;;;;;;;943574;27;19918;-78
2022/12/21 06:19:21;;;;;;;;;;;;;;;;;;943687;27;19911;-78
2022/12/21 06:19:52;;;;;;;;;;;;;;;;;;943631;27;20209;-78
2022/12/21 06:20:25;;;;;;;;;;;;;;;;;;943714;27;19915;-78
2022/12/21 06:20:56;;;;;;;;;;;;;;;;;;943729;27;19907;-77
2022/12/21 06:21:26;;;;;;;;;;;;;;;;;;943682;27;19914;-77
2022/12/21 06:21:59;;;;;;;;;;;;;;;;;;943587;27;19955;-78
2022/12/21 06:22:32;;;;;;;;;;;;;;;;;;943800;27;19907;-80
2022/12/21 06:23:03;;;;;;;;;;;;;;;;;;943641;27;20114;-78
2022/12/21 06:23:36;;;;;;;;;;;;;;;;;;943674;27;19962;-77
2022/12/21 06:24:07;;;;;;;;;;;;;;;;;;943646;27;19907;-79
2022/12/21 06:24:37;;;;;;;;;;;;;;;;;;943780;27;20136;-78
2022/12/21 06:25:11;;;;;;;;;;;;;;;;;;943639;27;20252;-78
2022/12/21 06:25:41;;;;;;;;;;;;;;;;;;943716;27;19907;-78
2022/12/21 06:26:16;;;;;;;;;;;;;;;;;;943770;27;19908;-78
2022/12/21 06:26:46;;;;;;;;;;;;;;;;;;943432;27;19931;-78
2022/12/21 06:27:19;;;;;;;;;;;;;;;;;;943434;27;19907;-77
2022/12/21 06:27:50;;;;;;;;;;;;;;;;;;943692;27;19908;-78
2022/12/21 06:28:21;;;;;;;;;;;;;;;;;;942351;27;19938;-77
2022/12/21 06:28:55;;;;;;;;;;;;;;;;;;941313;27;19918;-78
2022/12/21 06:29:25;;;;;;;;;;;;;;;;;;941451;27;19904;-78
2022/12/21 06:29:59;;;;;;;;;;;;;;;;;;941280;27;19908;-77
2022/12/21 06:30:29;;;;;;;;;;;;;;;;;;941619;27;19919;-78
2022/12/21 06:31:04;;;;;;;;;;;;;;;;;;941397;27;19911;-78
2022/12/21 06:31:37;;;;;;;;;;;;;;;;;;941342;27;20172;-78
2022/12/21 06:32:07;;;;;;;;;;;;;;;;;;941417;27;19907;-77
2022/12/21 06:32:38;;;;;;;;;;;;;;;;;;941420;27;19911;-78
2022/12/21 06:33:11;;;;;;;;;;;;;;;;;;941663;27;20141;-78
2022/12/21 06:33:42;;;;;;;;;;;;;;;;;;941507;27;19907;-78
2022/12/21 06:34:18;;;;;;;;;;;;;;;;;;941422;27;19908;-78
2022/12/21 06:34:48;;;;;;;;;;;;;;;;;;941458;27;19921;-78
2022/12/21 06:35:19;;;;;;;;;;;;;;;;;;941610;27;19907;-77
2022/12/21 06:35:56;;;;;;;;;;;;;;;;;;941399;27;19980;-77
2022/12/21 06:36:26;;;;;;;;;;;;;;;;;;941442;27;19907;-77
2022/12/21 06:37:00;;;;;;;;;;;;;;;;;;941522;27;19911;-77
2022/12/21 06:37:30;;;;;;;;;;;;;;;;;;941235;27;19907;-79
2022/12/21 06:38:01;;;;;;;;;;;;;;;;;;941388;27;19907;-77
2022/12/21 06:38:34;;;;;;;;;;;;;;;;;;941402;27;20192;-77
2022/12/21 06:39:05;;;;;;;;;;;;;;;;;;941302;27;19907;-78
2022/12/21 06:39:35;;;;;;;;;;;;;;;;;;941547;27;20522;-79
2022/12/21 06:40:09;;;;;;;;;;;;;;;;;;941531;27;19921;-78
2022/12/21 06:40:40;;;;;;;;;;;;;;;;;;941363;27;19907;-78
2022/12/21 06:41:14;;;;;;;;;;;;;;;;;;941315;27;19923;-77
2022/12/21 06:41:45;;;;;;;;;;;;;;;;;;941498;27;19922;-78
2022/12/21 06:42:16;;;;;;;;;;;;;;;;;;941233;27;20299;-77
2022/12/21 06:42:49;;;;;;;;;;;;;;;;;;941334;27;19963;-77
2022/12/21 06:43:19;;;;;;;;;;;;;;;;;;941105;27;19918;-76
2022/12/21 06:43:53;;;;;;;;;;;;;;;;;;941856;27;19907;-77
2022/12/21 06:44:23;;;;;;;;;;;;;;;;;;940070;27;19907;-79
2022/12/21 06:44:54;;;;;;;;;;;;;;;;;;942153;27;19907;-78
2022/12/21 06:45:27;;;;;;;;;;;;;;;;;;941355;27;19959;-78
2022/12/21 06:45:58;;;;;;;;;;;;;;;;;;943115;27;20248;-78
2022/12/21 06:47:02;;;;;;;;;;;;;;;;;;938506;27;19922;-76
2022/12/21 06:47:33;;;;;;;;;;;;;;;;;;945001;27;19899;-77
2022/12/21 06:48:04;;;;;;;;;;;;;;;;;;945024;27;19915;-79
2022/12/21 06:49:11;;;;;;;;;;;;;;;;;;945011;27;19924;-77
2022/12/21 06:51:02;;;;;;;;;;;;;;;;;;944972;27;19923;-76
2022/12/21 06:52:06;;;;;;;;;;;;;;;;;;943152;27;19899;-75
2022/12/21 06:52:36;;;;;;;;;;;;;;;;;;944963;27;20327;-77
2022/12/21 06:53:07;;;;;;;;;;;;;;;;;;944917;27;19899;-77
2022/12/21 06:53:41;;;;;;;;;;;;;;;;;;944771;27;19907;-75
2022/12/21 06:54:12;;;;;;;;;;;;;;;;;;944084;27;20160;-77
2022/12/21 06:56:04;;;;;;;;;;;;;;;;;;944953;27;19896;-75
2022/12/21 06:57:41;;;;;;;;;;;;;;;;;;944793;27;19942;-76
2022/12/21 06:58:13;;;;;;;;;;;;;;;;;;944735;27;19934;-77
2022/12/21 06:58:46;;;;;;;;;;;;;;;;;;944924;27;19966;-78
2022/12/21 06:59:17;;;;;;;;;;;;;;;;;;944553;27;19900;-77
2022/12/21 06:59:47;;;;;;;;;;;;;;;;;;944848;27;19914;-78
2022/12/21 07:00:21;;;;;;;;;;;;;;;;;;944714;27;19907;-80
2022/12/21 07:00:52;;;;;;;;;;;;;;;;;;944874;27;19900;-77
2022/12/21 07:01:26;;;;;;;;;;;;;;;;;;945027;27;19899;-78
2022/12/21 07:01:57;;;;;;;;;;;;;;;;;;943932;27;19950;-78
2022/12/21 07:02:27;;;;;;;;;;;;;;;;;;944377;27;19915;-80
2022/12/21 07:03:01;;;;;;;;;;;;;;;;;;944459;27;19908;-79
2022/12/21 07:03:32;;;;;;;;;;;;;;;;;;944442;27;19907;-80
2022/12/21 07:04:02;;;;;;;;;;;;;;;;;;943695;27;19918;-80
2022/12/21 07:04:36;;;;;;;;;;;;;;;;;;944572;27;20220;-80
2022/12/21 07:05:07;;;;;;;;;;;;;;;;;;944845;27;19904;-79
2022/12/21 07:05:37;;;;;;;;;;;;;;;;;;944648;27;19915;-79
2022/12/21 07:06:14;;;;;;;;;;;;;;;;;;944711;27;19907;-80
2022/12/21 07:07:26;;;;;;;;;;;;;;;;;;944979;27;20284;-76
2022/12/21 07:07:57;;;;;;;;;;;;;;;;;;944851;27;20279;-78
2022/12/21 07:08:28;;;;;;;;;;;;;;;;;;944244;27;19908;-80
2022/12/21 07:09:01;;;;;;;;;;;;;;;;;;944752;27;19911;-74
2022/12/21 07:11:21;;;;;;;;;;;;;;;;;;943981;27;19915;-79
2022/12/21 07:11:52;;;;;;;;;;;;;;;;;;944134;27;20414;-80
2022/12/21 07:12:22;;;;;;;;;;;;;;;;;;944381;27;19904;-78
2022/12/21 07:12:56;;;;;;;;;;;;;;;;;;944726;27;20296;-80
2022/12/21 07:13:27;;;;;;;;;;;;;;;;;;944739;27;20249;-77
2022/12/21 07:14:00;;;;;;;;;;;;;;;;;;944718;27;19900;-77
2022/12/21 07:15:38;;;;;;;;;;;;;;;;;;944581;27;19959;-77
2022/12/21 07:16:10;;;;;;;;;;;;;;;;;;944784;27;19907;-77
2022/12/21 07:17:17;;;;;;;;;;;;;;;;;;944761;27;19907;-78
2022/12/21 07:17:48;;;;;;;;;;;;;;;;;;944513;27;19899;-79
2022/12/21 07:18:21;;;;;;;;;;;;;;;;;;944144;27;19915;-79
2022/12/21 07:18:53;;;;;;;;;;;;;;;;;;944779;27;20257;-78
2022/12/21 07:19:26;;;;;;;;;;;;;;;;;;944728;27;19907;-76
2022/12/21 07:19:57;;;;;;;;;;;;;;;;;;944755;27;19935;-77
2022/12/21 07:20:27;;;;;;;;;;;;;;;;;;944642;27;20207;-75
2022/12/21 07:21:02;;;;;;;;;;;;;;;;;;944317;27;19903;-76
2022/12/21 07:21:35;;;;;;;;;;;;;;;;;;944195;27;20297;-81
2022/12/21 07:22:08;;;;;;;;;;;;;;;;;;944702;27;19900;-76
2022/12/21 07:22:39;;;;;;;;;;;;;;;;;;944756;27;19907;-77
2022/12/21 07:23:10;;;;;;;;;;;;;;;;;;944686;27;19938;-76
2022/12/21 07:23:44;;;;;;;;;;;;;;;;;;944669;27;19939;-77
2022/12/21 07:24:14;;;;;;;;;;;;;;;;;;944721;27;19907;-76
2022/12/21 07:24:48;;;;;;;;;;;;;;;;;;944591;27;20267;-76
2022/12/21 07:25:19;;;;;;;;;;;;;;;;;;944419;27;19919;-80
2022/12/21 07:25:49;;;;;;;;;;;;;;;;;;944511;27;19918;-78
2022/12/21 07:26:23;;;;;;;;;;;;;;;;;;944234;27;19953;-79
2022/12/21 07:26:54;;;;;;;;;;;;;;;;;;944066;27;19969;-80
2022/12/21 07:27:24;;;;;;;;;;;;;;;;;;944552;27;19934;-79
2022/12/21 07:27:58;;;;;;;;;;;;;;;;;;944582;27;20273;-79
2022/12/21 07:28:29;;;;;;;;;;;;;;;;;;944410;27;19908;-79
2022/12/21 07:29:02;;;;;;;;;;;;;;;;;;944157;27;19919;-79
2022/12/21 07:29:33;;;;;;;;;;;;;;;;;;944648;27;19900;-80
2022/12/21 07:30:04;;;;;;;;;;;;;;;;;;944694;27;19895;-79
2022/12/21 07:30:37;;;;;;;;;;;;;;;;;;944507;27;19906;-78
2022/12/21 07:31:09;;;;;;;;;;;;;;;;;;944630;27;20200;-79
2022/12/21 07:31:42;;;;;;;;;;;;;;;;;;944614;27;19896;-78
2022/12/21 07:32:13;;;;;;;;;;;;;;;;;;944372;27;19908;-79
2022/12/21 07:33:21;;;;;;;;;;;;;;;;;;944692;27;19903;-77
2022/12/21 07:33:52;;;;;;;;;;;;;;;;;;944768;27;19915;-77
2022/12/21 07:34:25;;;;;;;;;;;;;;;;;;944852;27;20260;-78
2022/12/21 07:34:55;;;;;;;;;;;;;;;;;;944613;27;19900;-76
2022/12/21 07:35:26;;;;;;;;;;;;;;;;;;944854;27;19899;-76
2022/12/21 07:36:00;;;;;;;;;;;;;;;;;;944805;27;19899;-78
2022/12/21 07:36:31;;;;;;;;;;;;;;;;;;944696;27;19918;-79
2022/12/21 07:37:07;;;;;;;;;;;;;;;;;;944534;27;19907;-79
2022/12/21 07:37:37;;;;;;;;;;;;;;;;;;944264;27;19900;-79
2022/12/21 07:38:08;;;;;;;;;;;;;;;;;;944526;27;19908;-79
2022/12/21 07:39:55;;;;;;;;;;;;;;;;;;944713;27;20181;-77
2022/12/21 07:40:26;;;;;;;;;;;;;;;;;;944260;27;19907;-77
2022/12/21 07:40:59;;;;;;;;;;;;;;;;;;944839;27;20311;-76
2022/12/21 07:43:11;;;;;;;;;;;;;;;;;;944913;27;19914;-77
2022/12/21 07:43:42;;;;;;;;;;;;;;;;;;944636;27;19919;-76
2022/12/21 07:44:15;;;;;;;;;;;;;;;;;;944551;27;19911;-76
2022/12/21 07:44:46;;;;;;;;;;;;;;;;;;944753;27;19908;-75
2022/12/21 07:45:17;;;;;;;;;;;;;;;;;;944873;27;19919;-75
2022/12/21 07:45:50;;;;;;;;;;;;;;;;;;944650;27;19899;-76
2022/12/21 07:46:21;;;;;;;;;;;;;;;;;;944807;27;19922;-76
2022/12/21 07:47:27;;;;;;;;;;;;;;;;;;944803;27;19918;-76
2022/12/21 07:47:58;;;;;;;;;;;;;;;;;;944827;27;20317;-75
2022/12/21 07:48:28;;;;;;;;;;;;;;;;;;944739;27;19916;-76
2022/12/21 07:49:02;;;;;;;;;;;;;;;;;;944915;27;19899;-75
2022/12/21 07:49:34;;;;;;;;;;;;;;;;;;944784;27;19907;-77
2022/12/21 07:50:08;;;;;;;;;;;;;;;;;;944856;27;19932;-77
2022/12/21 07:51:16;;;;;;;;;;;;;;;;;;944656;27;19931;-76
2022/12/21 07:51:47;;;;;;;;;;;;;;;;;;944573;27;19920;-75
2022/12/21 07:52:23;;;;;;;;;;;;;;;;;;944562;27;19919;-76
2022/12/21 07:52:53;;;;;;;;;;;;;;;;;;944693;27;19907;-76
2022/12/21 07:53:24;;;;;;;;;;;;;;;;;;944688;27;19914;-75
2022/12/21 07:53:57;;;;;;;;;;;;;;;;;;944718;27;19907;-75
2022/12/21 07:54:28;;;;;;;;;;;;;;;;;;944465;27;20588;-76
2022/12/21 07:54:59;;;;;;;;;;;;;;;;;;944749;27;19915;-77
2022/12/21 07:56:03;;;;;;;;;;;;;;;;;;939375;27;19919;-75
2022/12/21 07:57:10;;;;;;;;;;;;;;;;;;944854;27;19900;-77
2022/12/21 07:58:16;;;;;;;;;;;;;;;;;;944813;27;19919;-77
2022/12/21 07:59:22;;;;;;;;;;;;;;;;;;944943;27;20339;-78
2022/12/21 07:59:53;;;;;;;;;;;;;;;;;;944700;27;19902;-75
2022/12/21 08:00:23;;;;;;;;;;;;;;;;;;944812;27;20667;-76
2022/12/21 08:00:57;;;;;;;;;;;;;;;;;;944898;27;20203;-76
2022/12/21 08:01:27;;;;;;;;;;;;;;;;;;944791;27;19923;-75
2022/12/21 08:02:00;;;;;;;;;;;;;;;;;;944715;27;19900;-75
2022/12/21 08:02:31;;;;;;;;;;;;;;;;;;944488;27;19907;-75
2022/12/21 08:03:02;;;;;;;;;;;;;;;;;;944750;27;19900;-76
2022/12/21 08:04:10;;;;;;;;;;;;;;;;;;944122;27;20301;-76
2022/12/21 08:04:42;;;;;;;;;;;;;;;;;;942640;27;19907;31
2022/12/21 08:05:13;;;;;;;;;;;;;;;;;;944524;27;19908;-77
2022/12/21 08:06:19;;;;;;;;;;;;;;;;;;943789;27;20383;-76
2022/12/21 08:07:26;;;;;;;;;;;;;;;;;;943978;27;19899;-76
2022/12/21 08:08:02;;;;;;;;;;;;;;;;;;944724;27;19906;-75
2022/12/21 08:08:33;;;;;;;;;;;;;;;;;;944586;27;19918;-76
2022/12/21 08:09:03;;;;;;;;;;;;;;;;;;944635;27;19988;-75
2022/12/21 08:10:11;;;;;;;;;;;;;;;;;;944675;27;19920;-75
2022/12/21 08:11:18;;;;;;;;;;;;;;;;;;944794;27;19896;-75
2022/12/21 08:11:49;;;;;;;;;;;;;;;;;;944157;27;19908;-76
2022/12/21 08:12:22;;;;;;;;;;;;;;;;;;944374;27;19907;-75
2022/12/21 08:12:53;;;;;;;;;;;;;;;;;;944465;27;20304;-76
2022/12/21 08:13:24;;;;;;;;;;;;;;;;;;944456;27;19914;-76
2022/12/21 08:13:57;;;;;;;;;;;;;;;;;;944419;27;19907;-78
2022/12/21 08:14:28;;;;;;;;;;;;;;;;;;944014;27;19902;-76
2022/12/21 08:15:01;;;;;;;;;;;;;;;;;;944355;27;19900;-75
2022/12/21 08:16:40;;;;;;;;;;;;;;;;;;942618;27;20438;-75
2022/12/21 08:17:10;;;;;;;;;;;;;;;;;;944397;27;20391;-75
2022/12/21 08:17:41;;;;;;;;;;;;;;;;;;944358;27;19922;-75
2022/12/21 08:18:14;;;;;;;;;;;;;;;;;;944689;27;19950;-75
2022/12/21 08:18:45;;;;;;;;;;;;;;;;;;944624;27;20273;-78
2022/12/21 08:19:18;;;;;;;;;;;;;;;;;;944807;27;19895;-75
2022/12/21 08:19:49;;;;;;;;;;;;;;;;;;944776;27;19987;-74
2022/12/21 08:20:23;;;;;;;;;;;;;;;;;;944802;27;19903;-76
2022/12/21 08:20:54;;;;;;;;;;;;;;;;;;944749;27;20324;-78
2022/12/21 08:21:28;;;;;;;;;;;;;;;;;;944387;27;19927;-76
2022/12/21 08:21:58;;;;;;;;;;;;;;;;;;944483;27;19908;-77
2022/12/21 08:22:34;;;;;;;;;;;;;;;;;;944496;27;19902;-75
2022/12/21 08:23:05;;;;;;;;;;;;;;;;;;944726;27;19906;-75
2022/12/21 08:23:36;;;;;;;;;;;;;;;;;;944776;27;19900;-76
2022/12/21 08:24:09;;;;;;;;;;;;;;;;;;944724;27;20173;-75
2022/12/21 08:25:17;;;;;;;;;;;;;;;;;;944798;27;20299;-75
2022/12/21 08:25:48;;;;;;;;;;;;;;;;;;944655;27;19924;-75
2022/12/21 08:26:21;;;;;;;;;;;;;;;;;;944563;27;19908;-74
2022/12/21 08:26:52;;;;;;;;;;;;;;;;;;944526;27;19900;-75
2022/12/21 08:27:26;;;;;;;;;;;;;;;;;;944606;27;19900;-74
2022/12/21 08:27:56;;;;;;;;;;;;;;;;;;944309;27;19896;-78
2022/12/21 08:28:27;;;;;;;;;;;;;;;;;;944490;27;19907;-74
2022/12/21 08:29:00;;;;;;;;;;;;;;;;;;944290;27;19911;-75
2022/12/21 08:29:31;;;;;;;;;;;;;;;;;;944671;27;19904;-76
2022/12/21 08:30:02;;;;;;;;;;;;;;;;;;944663;27;19896;-75
2022/12/21 08:30:36;;;;;;;;;;;;;;;;;;944613;27;20209;-75
2022/12/21 08:31:07;;;;;;;;;;;;;;;;;;944332;27;19907;-75
2022/12/21 08:31:40;;;;;;;;;;;;;;;;;;944323;27;19908;-75
2022/12/21 08:32:11;;;;;;;;;;;;;;;;;;944570;27;19907;-74
2022/12/21 08:32:44;;;;;;;;;;;;;;;;;;944276;27;19914;-76
2022/12/21 08:33:14;;;;;;;;;;;;;;;;;;944396;27;19907;-74
2022/12/21 08:33:48;;;;;;;;;;;;;;;;;;944112;27;20229;-75
2022/12/21 08:34:19;;;;;;;;;;;;;;;;;;944446;27;19899;-77
2022/12/21 08:34:52;;;;;;;;;;;;;;;;;;943968;27;19900;-78
2022/12/21 08:35:23;;;;;;;;;;;;;;;;;;944392;27;19935;-75
2022/12/21 08:35:53;;;;;;;;;;;;;;;;;;944467;27;19907;-75
2022/12/21 08:36:28;;;;;;;;;;;;;;;;;;944650;27;19907;-76
2022/12/21 08:37:00;;;;;;;;;;;;;;;;;;944760;27;19927;-77
2022/12/21 08:38:06;;;;;;;;;;;;;;;;;;939128;27;21492;-75
2022/12/21 08:39:12;;;;;;;;;;;;;;;;;;944788;27;19899;-75
2022/12/21 08:40:19;;;;;;;;;;;;;;;;;;944695;27;19907;-75
2022/12/21 08:40:51;;;;;;;;;;;;;;;;;;944258;27;20172;-75
2022/12/21 08:41:21;;;;;;;;;;;;;;;;;;944664;27;20271;-75
2022/12/21 08:41:54;;;;;;;;;;;;;;;;;;944506;27;19906;-76
2022/12/21 08:42:25;;;;;;;;;;;;;;;;;;944664;27;19906;-76
2022/12/21 08:42:58;;;;;;;;;;;;;;;;;;944284;27;19942;-76
2022/12/21 08:43:59;;;;;;;;;;;;;;;;;;940235;27;19915;-74
2022/12/21 08:45:06;;;;;;;;;;;;;;;;;;944689;27;19900;-76
2022/12/21 08:46:13;;;;;;;;;;;;;;;;;;944662;27;19903;-75
2022/12/21 08:47:16;;;;;;;;;;;;;;;;;;944552;27;19962;-76
2022/12/21 08:47:50;;;;;;;;;;;;;;;;;;944401;27;19955;-76
2022/12/21 08:48:20;;;;;;;;;;;;;;;;;;944436;27;19908;-75
2022/12/21 08:48:51;;;;;;;;;;;;;;;;;;944439;27;19908;-75
2022/12/21 08:49:24;;;;;;;;;;;;;;;;;;944508;27;19903;-75
2022/12/21 08:49:55;;;;;;;;;;;;;;;;;;944390;27;19907;-75
2022/12/21 08:50:25;;;;;;;;;;;;;;;;;;944707;27;19899;-76
2022/12/21 08:50:59;;;;;;;;;;;;;;;;;;944715;27;19903;-76
2022/12/21 08:52:35;;;;;;;;;;;;;;;;;;944427;27;19904;-75
2022/12/21 08:53:08;;;;;;;;;;;;;;;;;;944183;27;20314;-74
2022/12/21 08:54:14;;;;;;;;;;;;;;;;;;944759;27;19903;-76
2022/12/21 08:56:06;;;;;;;;;;;;;;;;;;944729;27;20260;-75
2022/12/21 08:57:42;;;;;;;;;;;;;;;;;;944759;27;19895;-75
2022/12/21 08:58:13;;;;;;;;;;;;;;;;;;944636;27;19907;-75
2022/12/21 08:58:46;;;;;;;;;;;;;;;;;;944553;27;20152;-78
2022/12/21 08:59:17;;;;;;;;;;;;;;;;;;944622;27;19906;-76
2022/12/21 08:59:50;;;;;;;;;;;;;;;;;;944553;27;20646;-78
2022/12/21 09:00:21;;;;;;;;;;;;;;;;;;944699;27;19915;-75
2022/12/21 09:01:28;;;;;;;;;;;;;;;;;;944777;27;20261;-77
2022/12/21 09:01:59;;;;;;;;;;;;;;;;;;944676;27;19907;-76
2022/12/21 09:03:35;;;;;;;;;;;;;;;;;;944254;27;19903;-76
2022/12/21 09:04:05;;;;;;;;;;;;;;;;;;944360;27;19907;-75
2022/12/21 09:05:13;;;;;;;;;;;;;;;;;;944742;27;19899;-76
2022/12/21 09:05:45;;;;;;;;;;;;;;;;;;944659;27;19899;-75
2022/12/21 09:06:19;;;;;;;;;;;;;;;;;;944625;27;19903;-74
2022/12/21 09:07:25;;;;;;;;;;;;;;;;;;944758;27;19931;-75
2022/12/21 09:07:55;;;;;;;;;;;;;;;;;;943878;27;19907;-74
2022/12/21 09:08:29;;;;;;;;;;;;;;;;;;944336;27;19895;-75
2022/12/21 09:09:02;;;;;;;;;;;;;;;;;;943570;27;19907;-76
2022/12/21 09:09:33;;;;;;;;;;;;;;;;;;944170;27;19987;-75
2022/12/21 09:10:07;;;;;;;;;;;;;;;;;;944254;27;19896;-75
2022/12/21 09:10:37;;;;;;;;;;;;;;;;;;944209;27;20358;-75
2022/12/21 09:11:13;;;;;;;;;;;;;;;;;;944383;27;19896;-76
2022/12/21 09:12:19;;;;;;;;;;;;;;;;;;944761;27;19903;-79
2022/12/21 09:12:50;;;;;;;;;;;;;;;;;;944527;27;19907;-75
2022/12/21 09:13:20;;;;;;;;;;;;;;;;;;944726;27;19899;-77
2022/12/21 09:13:53;;;;;;;;;;;;;;;;;;944617;27;20272;-78
2022/12/21 09:14:24;;;;;;;;;;;;;;;;;;944633;27;19935;-78
2022/12/21 09:14:57;;;;;;;;;;;;;;;;;;944645;27;19911;-77
2022/12/21 09:17:15;;;;;;;;;;;;;;;;;;944748;27;19945;-79
2022/12/21 09:17:46;;;;;;;;;;;;;;;;;;944678;27;19899;-77
2022/12/21 09:18:17;;;;;;;;;;;;;;;;;;944422;27;20425;-77
2022/12/21 09:18:50;;;;;;;;;;;;;;;;;;944559;27;19906;-78
2022/12/21 09:19:21;;;;;;;;;;;;;;;;;;944625;27;19911;-77
2022/12/21 09:19:54;;;;;;;;;;;;;;;;;;944671;27;19900;-77
2022/12/21 09:20:25;;;;;;;;;;;;;;;;;;944628;27;19935;-76
2022/12/21 09:21:02;;;;;;;;;;;;;;;;;;944740;27;19907;-77
2022/12/21 09:21:32;;;;;;;;;;;;;;;;;;944611;27;19899;-77
2022/12/21 09:22:05;;;;;;;;;;;;;;;;;;944688;27;19899;-76
2022/12/21 09:22:36;;;;;;;;;;;;;;;;;;944634;27;19906;-76
2022/12/21 09:23:07;;;;;;;;;;;;;;;;;;944649;27;19907;-76
2022/12/21 09:23:43;;;;;;;;;;;;;;;;;;944755;27;19915;-77
2022/12/21 09:24:13;;;;;;;;;;;;;;;;;;944565;27;19912;-77
2022/12/21 09:24:47;;;;;;;;;;;;;;;;;;944563;27;19899;-76
2022/12/21 09:25:17;;;;;;;;;;;;;;;;;;944622;27;19900;-75
2022/12/21 09:25:48;;;;;;;;;;;;;;;;;;944700;27;20249;-77
2022/12/21 09:26:21;;;;;;;;;;;;;;;;;;944581;27;19935;-76
2022/12/21 09:26:52;;;;;;;;;;;;;;;;;;944479;27;19900;-76
2022/12/21 09:27:25;;;;;;;;;;;;;;;;;;944609;27;19899;-77
2022/12/21 09:27:58;;;;;;;;;;;;;;;;;;944692;27;19927;-78
2022/12/21 09:29:35;;;;;;;;;;;;;;;;;;944719;27;20357;-77
2022/12/21 09:30:06;;;;;;;;;;;;;;;;;;944293;27;19906;-75
2022/12/21 09:30:37;;;;;;;;;;;;;;;;;;944292;27;19903;-77
2022/12/21 09:31:11;;;;;;;;;;;;;;;;;;944362;27;19899;-77
2022/12/21 09:31:42;;;;;;;;;;;;;;;;;;944700;27;19910;-77
2022/12/21 09:32:15;;;;;;;;;;;;;;;;;;944664;27;19899;-75
2022/12/21 09:32:46;;;;;;;;;;;;;;;;;;944621;27;19911;-76
2022/12/21 09:33:16;;;;;;;;;;;;;;;;;;944628;27;19900;-76
2022/12/21 09:33:50;;;;;;;;;;;;;;;;;;944374;27;19911;-76